IDBO2: Little River, Idabel, OK

                                SHEF ID:       IDBO2     Little River blw Lukfata Creek
STATION TYPE: Stream Gauge
Regulating: Stage = 27.50, Flow = 12499

PRECIP STAGE RIV-FLOW BAT-LOAD
in ft cfs volt
Ccp-Rev Ccp-Rev Ccp-Rev Ccp-Rev
(America/Chicago)
03/06 00:00 0.00 6.04 256 13.59
03/06 01:00 0.00 6.50 400 13.56
03/06 02:00 0.00 7.11 609 13.54
03/06 03:00 0.00 7.66 818 13.52
03/06 04:00 0.00 8.11 998 13.49
03/06 05:00 0.00 8.45 1139 13.48
03/06 06:00 0.00 8.69 1241 13.46
03/06 07:00 0.00 8.86 1314 13.45
03/06 08:00 0.00 8.97 1362 13.45
03/06 09:00 0.00 9.03 1388 13.55
03/06 10:00 0.00 9.06 1401 13.75
03/06 11:00 0.00 9.05 1397 13.92
03/06 12:00 0.00 9.03 1388 13.90
03/06 13:00 0.00 8.99 1370 13.87
03/06 14:00 0.00 8.94 1349 13.85
03/06 15:00 0.00 8.88 1323 13.82
03/06 16:00 0.00 8.83 1301 13.81
03/06 17:00 0.00 8.77 1275 13.78
03/06 18:00 0.00 8.72 1254 13.77
03/06 19:00 0.00 8.67 1232 13.74
03/06 20:00 0.00 8.63 1215 13.70
03/06 21:00 0.00 8.59 1198 13.67
03/06 22:00 0.00 8.56 1185 13.64
03/06 23:00 0.00 8.52 1168 13.61
Data processed at Sat 07Mar2026 05:32 GMT

NOTICE: If you are parsing this page

Please convert to using our Data API. Starting early 2026 we will be migrating to: https://water.usace.army.mil with modern pages rendered in JavaScript. When this migration completes you will no longer be able to scrape this page! CWMSDataAPI (CDA)

Timeseries IDs (TSIDs)

TSIDs used from left to right in the data table
IDAB.Precip-Inc.Total.1Hour.1Hour.Ccp-Rev
IDAB.Stage.Inst.1Hour.0.Ccp-Rev
IDAB.Flow.Inst.1Hour.0.Ccp-Rev
IDAB.Volt-Battery Load.Inst.1Hour.0.Ccp-Rev

                            

All information presented herein is the property of the government of the United States of America and may be revised or deleted at any time without prior notice. Dissemination of this information without the expressed written consent of the Public Affairs Office, Tulsa District U.S. Army Corps of Engineers is strictly prohibited. These data are gathered electronically and, as presented, have NOT undergone any form of quality control. These data are NOT guaranteed to be valid or correct.